Time,TemperatureF,DewpointF,PressureIn,WindDirection,WindDirectionDegrees,WindSpeedMPH,WindSpeedGustMPH,Humidity,HourlyPrecipIn,Conditions,Clouds,dailyrainin,SoftwareType,DateUTC
2013-07-19 00:00:00,82.9,75.8,29.91,East,90,0.0,2.3,79,0.00,OVC,FEW,0.00,WeatherDisplay:10.37,2013-07-19 05:00:00,
2013-07-19 00:05:00,82.9,75.8,29.91,South,180,0.7,3.5,79,0.00,OVC,FEW,0.00,WeatherDisplay:10.37,2013-07-19 05:05:00,
2013-07-19 00:11:00,82.9,75.8,29.91,SW,225,0.0,2.3,79,0.00,OVC,FEW,0.00,WeatherDisplay:10.37,2013-07-19 05:11:00,
2013-07-19 00:16:00,82.8,76.0,29.91,SW,225,0.7,3.5,80,0.00,OVC,FEW,0.00,WeatherDisplay:10.37,2013-07-19 05:16:00,
2013-07-19 00:22:00,82.6,75.8,29.91,SW,225,0.7,2.3,80,0.00,OVC,FEW,0.00,WeatherDisplay:10.37,2013-07-19 05:22:00,
2013-07-19 00:28:00,82.4,75.6,29.91,SW,225,0.7,3.5,80,0.00,OVC,FEW,0.00,WeatherDisplay:10.37,2013-07-19 05:28:00,
2013-07-19 00:33:00,82.2,75.8,29.91,SW,225,0.0,4.6,81,0.00,OVC,FEW,0.00,WeatherDisplay:10.37,2013-07-19 05:33:00,
2013-07-19 00:39:00,82.2,75.8,29.90,NW,315,0.0,3.5,81,0.00,OVC,FEW,0.00,WeatherDisplay:10.37,2013-07-19 05:39:00,
2013-07-19 00:44:00,82.0,75.6,29.90,West,270,0.0,2.3,81,0.00,OVC,FEW,0.00,WeatherDisplay:10.37,2013-07-19 05:44:00,
2013-07-19 00:50:00,82.0,76.0,29.90,SW,225,0.0,3.5,82,0.00,OVC,FEW,0.00,WeatherDisplay:10.37,2013-07-19 05:50:00,
2013-07-19 00:56:00,81.9,75.8,29.90,South,180,0.7,4.6,82,0.00,OVC,FEW,0.00,WeatherDisplay:10.37,2013-07-19 05:56:00,
2013-07-19 01:01:00,82.0,76.0,29.89,SW,225,0.0,3.5,82,0.00,OVC,FEW,0.00,WeatherDisplay:10.37,2013-07-19 06:01:00,
2013-07-19 01:07:00,82.0,76.0,29.90,ESE,112,0.7,3.8,82,0.00,OVC,FEW,0.00,WeatherDisplay:10.37,2013-07-19 06:07:00,
2013-07-19 01:12:00,82.0,75.6,29.90,SW,225,1.6,3.8,81,0.00,OVC,FEW,0.00,WeatherDisplay:10.37,2013-07-19 06:12:00,
2013-07-19 01:18:00,82.0,75.6,29.89,South,180,1.6,3.5,81,0.00,OVC,FEW,0.00,WeatherDisplay:10.37,2013-07-19 06:18:00,
2013-07-19 01:24:00,81.9,75.5,29.89,West,270,0.7,5.8,81,0.00,OVC,FEW,0.00,WeatherDisplay:10.37,2013-07-19 06:24:00,
2013-07-19 01:29:00,81.9,75.5,29.89,SW,225,2.2,5.8,81,0.00,OVC,FEW,0.00,WeatherDisplay:10.37,2013-07-19 06:29:00,
2013-07-19 01:35:00,81.9,75.5,29.89,SW,225,1.6,3.8,81,0.00,OVC,FEW,0.00,WeatherDisplay:10.37,2013-07-19 06:35:00,
2013-07-19 01:40:00,81.9,75.8,29.89,SW,225,0.7,3.5,82,0.00,OVC,FEW,0.00,WeatherDisplay:10.37,2013-07-19 06:40:00,
2013-07-19 01:46:00,81.9,75.8,29.89,SW,225,2.2,4.6,82,0.00,OVC,FEW,0.00,WeatherDisplay:10.37,2013-07-19 06:46:00,
2013-07-19 01:52:00,81.7,75.6,29.88,South,180,0.0,2.3,82,0.00,OVC,FEW,0.00,WeatherDisplay:10.37,2013-07-19 06:52:00,
2013-07-19 01:57:00,81.5,75.5,29.89,South,180,1.6,3.8,82,0.00,OVC,FEW,0.00,WeatherDisplay:10.37,2013-07-19 06:57:00,
2013-07-19 02:03:00,81.5,75.8,29.89,SW,225,2.2,5.8,83,0.00,OVC,FEW,0.00,WeatherDisplay:10.37,2013-07-19 07:03:00,
2013-07-19 02:08:00,81.5,75.5,29.89,SW,225,1.6,5.8,82,0.00,OVC,FEW,0.00,WeatherDisplay:10.37,2013-07-19 07:08:00,
2013-07-19 02:14:00,81.3,75.7,29.88,SW,225,1.6,3.5,83,0.00,OVC,FEW,0.00,WeatherDisplay:10.37,2013-07-19 07:14:00,
2013-07-19 02:20:00,81.1,75.8,29.88,West,270,0.0,3.8,84,0.00,OVC,FEW,0.00,WeatherDisplay:10.37,2013-07-19 07:20:00,
2013-07-19 02:25:00,81.0,75.7,29.88,South,180,0.0,3.5,84,0.00,OVC,FEW,0.00,WeatherDisplay:10.37,2013-07-19 07:25:00,
2013-07-19 02:31:00,81.0,75.7,29.88,South,180,0.7,3.5,84,0.00,OVC,FEW,0.00,WeatherDisplay:10.37,2013-07-19 07:31:00,
2013-07-19 02:36:00,80.8,75.5,29.87,South,180,0.7,3.5,84,0.00,OVC,FEW,0.00,WeatherDisplay:10.37,2013-07-19 07:36:00,
2013-07-19 02:42:00,80.6,75.3,29.88,West,270,0.0,3.5,84,0.00,OVC,FEW,0.00,WeatherDisplay:10.37,2013-07-19 07:42:00,
2013-07-19 02:48:00,80.4,75.1,29.88,South,180,0.7,2.3,84,0.00,OVC,FEW,0.00,WeatherDisplay:10.37,2013-07-19 07:48:00,
2013-07-19 02:53:00,80.4,75.1,29.88,West,270,0.7,2.3,84,0.00,OVC,FEW,0.00,WeatherDisplay:10.37,2013-07-19 07:53:00,
2013-07-19 02:59:00,80.2,75.0,29.87,SW,225,0.7,3.5,84,0.00,OVC,FEW,0.00,WeatherDisplay:10.37,2013-07-19 07:59:00,
2013-07-19 03:04:00,80.1,74.8,29.87,SSW,202,1.6,3.5,84,0.00,OVC,FEW,0.00,WeatherDisplay:10.37,2013-07-19 08:04:00,
2013-07-19 03:10:00,80.1,74.8,29.87,East,90,0.0,2.3,84,0.00,OVC,FEW,0.00,WeatherDisplay:10.37,2013-07-19 08:10:00,
2013-07-19 03:16:00,79.9,74.6,29.87,South,180,0.7,3.5,84,0.00,OVC,FEW,0.00,WeatherDisplay:10.37,2013-07-19 08:16:00,
2013-07-19 03:21:00,79.9,74.6,29.87,SW,225,1.6,3.5,84,0.00,OVC,FEW,0.00,WeatherDisplay:10.37,2013-07-19 08:21:00,
2013-07-19 03:27:00,79.7,74.4,29.86,South,180,1.6,3.8,84,0.00,OVC,FEW,0.00,WeatherDisplay:10.37,2013-07-19 08:27:00,
2013-07-19 03:32:00,79.7,74.4,29.86,SW,225,0.0,2.3,84,0.00,OVC,FEW,0.00,WeatherDisplay:10.37,2013-07-19 08:32:00,
2013-07-19 03:38:00,79.7,74.4,29.86,South,180,0.0,3.5,84,0.00,OVC,FEW,0.00,WeatherDisplay:10.37,2013-07-19 08:38:00,
2013-07-19 03:44:00,79.5,74.3,29.86,West,270,0.0,1.2,84,0.00,OVC,FEW,0.00,WeatherDisplay:10.37,2013-07-19 08:44:00,
2013-07-19 03:49:00,79.5,74.3,29.86,South,180,1.6,3.5,84,0.00,OVC,FEW,0.00,WeatherDisplay:10.37,2013-07-19 08:49:00,
2013-07-19 03:55:00,79.3,74.1,29.85,SW,225,0.7,2.2,84,0.00,OVC,FEW,0.00,WeatherDisplay:10.37,2013-07-19 08:55:00,
2013-07-19 04:00:00,79.3,74.1,29.85,SW,225,0.0,3.5,84,0.00,OVC,FEW,0.00,WeatherDisplay:10.37,2013-07-19 09:00:00,
2013-07-19 04:06:00,79.3,74.1,29.85,South,180,1.6,3.5,84,0.00,OVC,FEW,0.00,WeatherDisplay:10.37,2013-07-19 09:06:00,
2013-07-19 04:12:00,79.3,74.1,29.85,SE,135,0.7,3.5,84,0.00,OVC,FEW,0.00,WeatherDisplay:10.37,2013-07-19 09:12:00,
2013-07-19 04:17:00,79.2,73.9,29.85,SW,225,0.7,3.5,84,0.00,OVC,FEW,0.00,WeatherDisplay:10.37,2013-07-19 09:17:00,
2013-07-19 04:23:00,79.2,73.9,29.85,South,180,0.0,2.3,84,0.00,OVC,FEW,0.00,WeatherDisplay:10.37,2013-07-19 09:23:00,
2013-07-19 04:28:00,79.2,73.9,29.85,SW,225,2.2,4.6,84,0.00,OVC,FEW,0.00,WeatherDisplay:10.37,2013-07-19 09:28:00,
2013-07-19 04:34:00,79.0,73.7,29.85,South,180,0.7,2.3,84,0.00,OVC,FEW,0.00,WeatherDisplay:10.37,2013-07-19 09:34:00,
2013-07-19 04:40:00,79.0,73.7,29.85,South,180,0.7,2.3,84,0.00,OVC,FEW,0.00,WeatherDisplay:10.37,2013-07-19 09:40:00,
2013-07-19 04:45:00,78.8,73.6,29.84,South,180,0.7,2.3,84,0.00,OVC,FEW,0.00,WeatherDisplay:10.37,2013-07-19 09:45:00,
2013-07-19 04:51:00,78.8,73.6,29.84,South,180,0.0,3.5,84,0.00,OVC,FEW,0.00,WeatherDisplay:10.37,2013-07-19 09:51:00,
2013-07-19 04:56:00,78.8,73.6,29.84,North,0,0.0,1.2,84,0.00,OVC,FEW,0.00,WeatherDisplay:10.37,2013-07-19 09:56:00,
2013-07-19 05:02:00,78.8,73.6,29.84,SW,225,0.0,2.3,84,0.00,OVC,FEW,0.00,WeatherDisplay:10.37,2013-07-19 10:02:00,
2013-07-19 05:08:00,78.6,73.4,29.85,West,270,0.0,1.2,84,0.00,OVC,FEW,0.00,WeatherDisplay:10.37,2013-07-19 10:08:00,
2013-07-19 05:13:00,78.6,73.4,29.84,SW,225,0.0,2.3,84,0.00,OVC,FEW,0.00,WeatherDisplay:10.37,2013-07-19 10:13:00,
2013-07-19 05:19:00,78.6,73.4,29.85,East,90,0.0,2.3,84,0.00,OVC,FEW,0.00,WeatherDisplay:10.37,2013-07-19 10:19:00,
2013-07-19 05:24:00,78.4,73.2,29.85,West,270,0.0,1.2,84,0.00,OVC,FEW,0.00,WeatherDisplay:10.37,2013-07-19 10:24:00,
2013-07-19 05:30:00,78.4,73.2,29.85,SW,225,0.7,2.3,84,0.00,OVC,FEW,0.00,WeatherDisplay:10.37,2013-07-19 10:30:00,
2013-07-19 05:36:00,78.4,73.2,29.85,SW,225,0.0,1.2,84,0.00,OVC,FEW,0.00,WeatherDisplay:10.37,2013-07-19 10:36:00,
2013-07-19 05:41:00,78.4,73.2,29.85,SW,225,0.7,1.2,84,0.00,OVC,FEW,0.00,WeatherDisplay:10.37,2013-07-19 10:41:00,
2013-07-19 05:47:00,78.3,73.0,29.85,SW,225,0.7,2.2,84,0.00,OVC,FEW,0.00,WeatherDisplay:10.37,2013-07-19 10:47:00,
2013-07-19 05:53:00,78.3,73.0,29.85,SW,225,0.0,1.2,84,0.00,OVC,FEW,0.00,WeatherDisplay:10.37,2013-07-19 10:53:00,
2013-07-19 05:58:00,78.3,73.0,29.85,South,180,0.0,1.2,84,0.00,OVC,FEW,0.00,WeatherDisplay:10.37,2013-07-19 10:58:00,
2013-07-19 06:04:00,78.4,73.2,29.85,South,180,0.0,1.2,84,0.00,OVC,FEW,0.00,WeatherDisplay:10.37,2013-07-19 11:04:00,
2013-07-19 06:09:00,78.4,73.2,29.85,SW,225,0.7,1.2,84,0.00,OVC,FEW,0.00,WeatherDisplay:10.37,2013-07-19 11:09:00,
2013-07-19 06:15:00,78.6,73.4,29.85,SSW,202,0.0,2.3,84,0.00,OVC,FEW,0.00,WeatherDisplay:10.37,2013-07-19 11:15:00,
2013-07-19 06:20:00,78.6,73.4,29.85,West,270,0.0,2.3,84,0.00,OVC,FEW,0.00,WeatherDisplay:10.37,2013-07-19 11:20:00,
2013-07-19 06:26:00,78.8,73.6,29.85,SW,225,0.0,1.6,84,0.00,OVC,FEW,0.00,WeatherDisplay:10.37,2013-07-19 11:26:00,
2013-07-19 06:32:00,78.8,73.6,29.85,NE,45,0.0,2.3,84,0.00,OVC,FEW,0.00,WeatherDisplay:10.37,2013-07-19 11:32:00,
2013-07-19 06:37:00,79.0,73.7,29.85,SW,225,0.0,1.2,84,0.00,OVC,FEW,0.00,WeatherDisplay:10.37,2013-07-19 11:37:00,
2013-07-19 06:43:00,79.2,73.9,29.85,West,270,0.7,4.6,84,0.00,OVC,FEW,0.00,WeatherDisplay:10.37,2013-07-19 11:43:00,
2013-07-19 06:48:00,79.3,74.1,29.85,SW,225,1.6,3.5,84,0.00,OVC,FEW,0.00,WeatherDisplay:10.37,2013-07-19 11:48:00,
2013-07-19 06:54:00,79.5,74.3,29.85,West,270,0.7,3.5,84,0.00,OVC,FEW,0.00,WeatherDisplay:10.37,2013-07-19 11:54:00,
2013-07-19 07:00:00,79.7,74.4,29.85,SW,225,0.0,3.5,84,0.00,OVC,FEW,0.00,WeatherDisplay:10.37,2013-07-19 12:00:00,
2013-07-19 07:05:00,79.9,74.6,29.85,SW,225,0.7,3.5,84,0.00,OVC,FEW,0.00,WeatherDisplay:10.37,2013-07-19 12:05:00,
2013-07-19 07:11:00,79.9,74.6,29.85,South,180,0.0,3.5,84,0.00,OVC,FEW,0.00,WeatherDisplay:10.37,2013-07-19 12:11:00,
2013-07-19 07:16:00,80.2,75.0,29.85,NW,315,2.2,5.8,84,0.00,OVC,FEW,0.00,WeatherDisplay:10.37,2013-07-19 12:16:00,
2013-07-19 07:22:00,80.4,74.8,29.85,South,180,0.7,5.8,83,0.00,OVC,FEW,0.00,WeatherDisplay:10.37,2013-07-19 12:22:00,
2013-07-19 07:28:00,80.8,74.8,29.86,WNW,292,0.7,3.5,82,0.00,OVC,FEW,0.00,WeatherDisplay:10.37,2013-07-19 12:28:00,
2013-07-19 07:33:00,81.0,74.9,29.86,South,180,0.7,3.5,82,0.00,OVC,FEW,0.00,WeatherDisplay:10.37,2013-07-19 12:33:00,
2013-07-19 07:39:00,81.1,74.8,29.85,SW,225,2.2,6.9,81,0.00,OVC,FEW,0.00,WeatherDisplay:10.37,2013-07-19 12:39:00,
2013-07-19 07:44:00,81.5,75.1,29.86,SE,135,0.7,3.5,81,0.00,OVC,FEW,0.00,WeatherDisplay:10.37,2013-07-19 12:44:00,
2013-07-19 07:50:00,82.0,75.3,29.85,SSE,158,0.7,3.5,80,0.00,OVC,FEW,0.00,WeatherDisplay:10.37,2013-07-19 12:50:00,
2013-07-19 07:56:00,82.6,75.4,29.85,NW,315,0.7,3.5,79,0.00,OVC,FEW,0.00,WeatherDisplay:10.37,2013-07-19 12:56:00,
2013-07-19 08:01:00,83.1,75.2,29.86,South,180,1.6,4.6,77,0.00,OVC,FEW,0.00,WeatherDisplay:10.37,2013-07-19 13:01:00,
2013-07-19 08:07:00,82.9,75.0,29.86,SW,225,0.0,1.6,77,0.00,OVC,FEW,0.00,WeatherDisplay:10.37,2013-07-19 13:07:00,
2013-07-19 08:12:00,82.9,75.0,29.86,SW,225,1.6,3.5,77,0.00,OVC,FEW,0.00,WeatherDisplay:10.37,2013-07-19 13:12:00,
2013-07-19 08:18:00,82.8,74.8,29.87,West,270,0.7,3.1,77,0.00,OVC,FEW,0.00,WeatherDisplay:10.37,2013-07-19 13:18:00,
2013-07-19 08:24:00,82.8,74.8,29.86,NW,315,0.7,3.5,77,0.00,OVC,FEW,0.00,WeatherDisplay:10.37,2013-07-19 13:24:00,
2013-07-19 08:26:00,82.9,75.0,29.86,SW,225,0.0,3.5,77,0.00,OVC,FEW,0.00,WeatherDisplay:10.37,2013-07-19 13:26:00,
2013-07-19 08:32:00,83.1,74.8,29.86,SSE,158,0.0,5.8,76,0.00,OVC,FEW,0.00,WeatherDisplay:10.37,2013-07-19 13:32:00,
2013-07-19 08:37:00,83.1,74.4,29.86,SE,135,1.6,4.6,75,0.00,OVC,FEW,0.00,WeatherDisplay:10.37,2013-07-19 13:37:00,
2013-07-19 08:43:00,83.3,74.9,29.86,West,270,0.7,3.5,76,0.00,OVC,FEW,0.00,WeatherDisplay:10.37,2013-07-19 13:43:00,
2013-07-19 08:48:00,83.8,75.1,29.86,SW,225,1.6,5.8,75,0.00,OVC,FEW,0.00,WeatherDisplay:10.37,2013-07-19 13:48:00,
2013-07-19 08:54:00,84.4,75.6,29.86,SW,225,0.7,2.3,75,0.00,OVC,FEW,0.00,WeatherDisplay:10.37,2013-07-19 13:54:00,
2013-07-19 09:00:00,84.9,74.9,29.86,South,180,0.7,4.6,72,0.00,OVC,FEW,0.00,WeatherDisplay:10.37,2013-07-19 14:00:00,
2013-07-19 09:05:00,86.5,74.7,29.86,West,270,0.7,3.5,68,0.00,OVC,FEW,0.00,WeatherDisplay:10.37,2013-07-19 14:05:00,
2013-07-19 09:11:00,88.0,74.7,29.86,South,180,0.0,3.5,65,0.00,OVC,FEW,0.00,WeatherDisplay:10.37,2013-07-19 14:11:00,
2013-07-19 09:16:00,89.8,74.0,29.86,SW,225,0.7,4.6,60,0.00,OVC,FEW,0.00,WeatherDisplay:10.37,2013-07-19 14:16:00,
2013-07-19 09:22:00,90.7,73.4,29.86,SW,225,1.6,3.5,57,0.00,OVC,FEW,0.00,WeatherDisplay:10.37,2013-07-19 14:22:00,
2013-07-19 09:28:00,91.2,73.9,29.86,SSE,158,2.2,3.8,57,0.00,OVC,FEW,0.00,WeatherDisplay:10.37,2013-07-19 14:28:00,
2013-07-19 09:33:00,92.3,74.3,29.86,West,270,0.7,3.5,56,0.00,OVC,FEW,0.00,WeatherDisplay:10.37,2013-07-19 14:33:00,
2013-07-19 09:39:00,92.5,73.4,29.86,SW,225,2.2,5.8,54,0.00,OVC,FEW,0.00,WeatherDisplay:10.37,2013-07-19 14:39:00,
2013-07-19 09:44:00,93.4,73.7,29.86,SW,225,1.6,4.6,53,0.00,OVC,FEW,0.00,WeatherDisplay:10.37,2013-07-19 14:44:00,
2013-07-19 09:50:00,93.7,74.6,29.86,NE,45,0.0,4.6,54,0.00,OVC,FEW,0.00,WeatherDisplay:10.37,2013-07-19 14:50:00,
2013-07-19 09:56:00,91.8,73.3,29.86,South,180,0.7,5.8,55,0.00,OVC,FEW,0.00,WeatherDisplay:10.37,2013-07-19 14:56:00,
2013-07-19 10:01:00,90.9,73.0,29.86,SW,225,1.6,3.5,56,0.00,OVC,FEW,0.00,WeatherDisplay:10.37,2013-07-19 15:01:00,
2013-07-19 10:07:00,91.6,74.2,29.87,NE,45,0.7,3.5,57,0.00,OVC,FEW,0.00,WeatherDisplay:10.37,2013-07-19 15:07:00,
2013-07-19 10:13:00,91.2,73.3,29.87,West,270,0.7,3.5,56,0.00,OVC,FEW,0.00,WeatherDisplay:10.37,2013-07-19 15:13:00,
2013-07-19 10:18:00,90.3,74.0,29.86,SW,225,0.0,3.5,59,0.00,OVC,FEW,0.00,WeatherDisplay:10.37,2013-07-19 15:18:00,
2013-07-19 10:24:00,90.5,74.7,29.86,South,180,0.0,1.2,60,0.00,OVC,FEW,0.00,WeatherDisplay:10.37,2013-07-19 15:24:00,
2013-07-19 10:29:00,92.1,74.7,29.86,West,270,0.0,3.5,57,0.00,OVC,FEW,0.00,WeatherDisplay:10.37,2013-07-19 15:29:00,
2013-07-19 10:35:00,93.7,74.6,29.85,SE,135,1.6,3.5,54,0.00,OVC,FEW,0.00,WeatherDisplay:10.37,2013-07-19 15:35:00,
2013-07-19 10:41:00,94.3,75.1,29.85,SW,225,0.7,5.8,54,0.00,OVC,FEW,0.00,WeatherDisplay:10.37,2013-07-19 15:41:00,
2013-07-19 10:46:00,93.9,73.6,29.85,South,180,1.6,6.9,52,0.00,OVC,FEW,0.00,WeatherDisplay:10.37,2013-07-19 15:46:00,
2013-07-19 10:52:00,95.2,74.8,29.85,SW,225,1.6,5.8,52,0.00,OVC,FEW,0.00,WeatherDisplay:10.37,2013-07-19 15:52:00,
2013-07-19 10:57:00,95.5,73.9,29.85,NW,315,1.6,5.8,50,0.00,OVC,FEW,0.00,WeatherDisplay:10.37,2013-07-19 15:57:00,
2013-07-19 11:03:00,95.5,75.1,29.85,SW,225,2.2,3.8,52,0.00,OVC,FEW,0.00,WeatherDisplay:10.37,2013-07-19 16:03:00,
2013-07-19 11:09:00,96.3,75.8,29.84,South,180,0.7,5.8,52,0.00,OVC,FEW,0.00,WeatherDisplay:10.37,2013-07-19 16:09:00,
2013-07-19 11:14:00,96.4,74.8,29.85,SW,225,3.1,6.9,50,0.00,OVC,FEW,0.00,WeatherDisplay:10.37,2013-07-19 16:14:00,
2013-07-19 11:20:00,97.0,74.7,29.84,South,180,1.6,6.9,49,0.00,OVC,FEW,0.00,WeatherDisplay:10.37,2013-07-19 16:20:00,
2013-07-19 11:25:00,96.3,73.4,29.84,NW,315,3.1,5.8,48,0.00,OVC,FEW,0.00,WeatherDisplay:10.37,2013-07-19 16:25:00,
2013-07-19 11:31:00,96.6,74.3,29.84,West,270,2.2,3.5,49,0.00,OVC,FEW,0.00,WeatherDisplay:10.37,2013-07-19 16:31:00,
2013-07-19 11:37:00,96.8,74.5,29.84,West,270,0.7,3.5,49,0.00,OVC,FEW,0.00,WeatherDisplay:10.37,2013-07-19 16:37:00,
2013-07-19 11:42:00,97.3,74.4,29.84,West,270,1.6,4.6,48,0.00,OVC,FEW,0.00,WeatherDisplay:10.37,2013-07-19 16:42:00,
2013-07-19 11:46:00,97.0,73.4,29.83,SW,225,2.2,4.6,47,0.00,OVC,FEW,0.00,WeatherDisplay:10.37,2013-07-19 16:46:00,
2013-07-19 11:52:00,97.0,74.0,29.83,West,270,2.2,8.1,48,0.00,OVC,FEW,0.00,WeatherDisplay:10.37,2013-07-19 16:52:00,
2013-07-19 11:57:00,97.3,73.7,29.83,SE,135,0.7,2.3,47,0.00,OVC,FEW,0.00,WeatherDisplay:10.37,2013-07-19 16:57:00,
2013-07-19 12:03:00,96.8,73.9,29.82,SW,225,2.2,8.1,48,0.00,OVC,FEW,0.00,WeatherDisplay:10.37,2013-07-19 17:03:00,
2013-07-19 12:09:00,96.6,73.1,29.83,SW,225,3.1,8.1,47,0.00,OVC,FEW,0.00,WeatherDisplay:10.37,2013-07-19 17:09:00,
2013-07-19 12:14:00,96.8,74.5,29.83,SW,225,0.7,4.6,49,0.00,OVC,FEW,0.00,WeatherDisplay:10.37,2013-07-19 17:14:00,
2013-07-19 12:20:00,98.2,74.6,29.82,South,180,0.7,2.3,47,0.00,OVC,FEW,0.00,WeatherDisplay:10.37,2013-07-19 17:20:00,
2013-07-19 12:25:00,98.6,74.2,29.82,West,270,1.6,5.8,46,0.00,OVC,FEW,0.00,WeatherDisplay:10.37,2013-07-19 17:25:00,
2013-07-19 12:31:00,98.6,74.2,29.81,SSW,202,1.6,3.5,46,0.00,OVC,FEW,0.00,WeatherDisplay:10.37,2013-07-19 17:31:00,
2013-07-19 12:37:00,97.7,73.4,29.81,SW,225,3.1,6.9,46,0.00,OVC,FEW,0.00,WeatherDisplay:10.37,2013-07-19 17:37:00,
2013-07-19 12:42:00,98.2,73.3,29.81,SW,225,2.2,6.0,45,0.00,OVC,FEW,0.00,WeatherDisplay:10.37,2013-07-19 17:42:00,
2013-07-19 12:48:00,97.9,73.6,29.81,South,180,3.1,6.9,46,0.00,OVC,FEW,0.00,WeatherDisplay:10.37,2013-07-19 17:48:00,
2013-07-19 12:53:00,98.4,74.1,29.81,South,180,2.2,8.1,46,0.00,OVC,FEW,0.00,WeatherDisplay:10.37,2013-07-19 17:53:00,
2013-07-19 12:59:00,98.1,73.7,29.81,East,90,1.6,5.8,46,0.00,OVC,FEW,0.00,WeatherDisplay:10.37,2013-07-19 17:59:00,
2013-07-19 13:05:00,98.6,74.2,29.81,West,270,2.2,4.6,46,0.00,OVC,FEW,0.00,WeatherDisplay:10.37,2013-07-19 18:05:00,
2013-07-19 13:10:00,98.2,73.9,29.81,West,270,1.6,8.1,46,0.00,OVC,FEW,0.00,WeatherDisplay:10.37,2013-07-19 18:10:00,
2013-07-19 13:16:00,98.8,73.7,29.81,SW,225,3.1,5.8,45,0.00,OVC,FEW,0.00,WeatherDisplay:10.37,2013-07-19 18:16:00,
2013-07-19 13:21:00,98.2,73.3,29.81,NW,315,2.2,9.2,45,0.00,OVC,FEW,0.00,WeatherDisplay:10.37,2013-07-19 18:21:00,
2013-07-19 13:27:00,97.3,72.4,29.80,SW,225,2.2,13.8,45,0.00,OVC,FEW,0.00,WeatherDisplay:10.37,2013-07-19 18:27:00,
2013-07-19 13:33:00,97.7,74.1,29.80,South,180,2.2,8.1,47,0.00,OVC,FEW,0.00,WeatherDisplay:10.37,2013-07-19 18:33:00,
2013-07-19 13:38:00,98.2,74.6,29.80,SE,135,0.7,6.9,47,0.00,OVC,FEW,0.00,WeatherDisplay:10.37,2013-07-19 18:38:00,
2013-07-19 13:44:00,98.8,73.7,29.80,West,270,1.6,4.6,45,0.00,OVC,FEW,0.00,WeatherDisplay:10.37,2013-07-19 18:44:00,
2013-07-19 13:49:00,99.9,74.7,29.80,SW,225,1.6,4.6,45,0.00,OVC,FEW,0.00,WeatherDisplay:10.37,2013-07-19 18:49:00,
2013-07-19 13:55:00,99.9,74.7,29.80,SW,225,1.6,3.5,45,0.00,OVC,FEW,0.00,WeatherDisplay:10.37,2013-07-19 18:55:00,
2013-07-19 14:01:00,100.2,73.7,29.80,South,180,3.8,8.1,43,0.00,OVC,FEW,0.00,WeatherDisplay:10.37,2013-07-19 19:01:00,
2013-07-19 14:06:00,98.8,73.1,29.80,WSW,248,1.6,4.6,44,0.00,OVC,FEW,0.00,WeatherDisplay:10.37,2013-07-19 19:06:00,
2013-07-19 14:12:00,98.4,72.7,29.79,SW,225,3.1,5.8,44,0.00,OVC,FEW,0.00,WeatherDisplay:10.37,2013-07-19 19:12:00,
2013-07-19 14:17:00,99.3,73.6,29.79,SW,225,1.6,5.8,44,0.00,OVC,FEW,0.00,WeatherDisplay:10.37,2013-07-19 19:17:00,
2013-07-19 14:23:00,100.2,73.0,29.79,East,90,0.7,4.6,42,0.00,OVC,FEW,0.00,WeatherDisplay:10.37,2013-07-19 19:23:00,
2013-07-19 14:29:00,100.2,73.0,29.78,East,90,0.7,3.5,42,0.00,OVC,FEW,0.00,WeatherDisplay:10.37,2013-07-19 19:29:00,
2013-07-19 14:34:00,100.2,73.0,29.78,East,90,0.7,3.5,42,0.00,OVC,FEW,0.00,WeatherDisplay:10.37,2013-07-19 19:34:00,
2013-07-19 14:40:00,100.0,73.5,29.78,SE,135,0.7,4.6,43,0.00,OVC,FEW,0.00,WeatherDisplay:10.37,2013-07-19 19:40:00,
2013-07-19 14:45:00,100.0,73.5,29.78,South,180,0.7,1.2,43,0.00,OVC,FEW,0.00,WeatherDisplay:10.37,2013-07-19 19:45:00,
2013-07-19 14:51:00,100.0,73.5,29.78,South,180,0.7,1.2,43,0.00,OVC,FEW,0.00,WeatherDisplay:10.37,2013-07-19 19:51:00,
2013-07-19 14:57:00,100.9,75.0,29.78,SE,135,0.7,2.3,44,0.00,OVC,FEW,0.00,WeatherDisplay:10.37,2013-07-19 19:57:00,
2013-07-19 15:02:00,100.9,75.0,29.77,SE,135,0.7,2.3,44,0.00,OVC,FEW,0.00,WeatherDisplay:10.37,2013-07-19 20:02:00,
2013-07-19 15:08:00,98.8,71.7,29.77,SW,225,3.8,9.2,42,0.00,OVC,FEW,0.00,WeatherDisplay:10.37,2013-07-19 20:08:00,
2013-07-19 15:13:00,98.8,71.0,29.77,NW,315,5.4,12.7,41,0.00,OVC,FEW,0.00,WeatherDisplay:10.37,2013-07-19 20:13:00,
2013-07-19 15:19:00,99.9,72.7,29.77,SW,225,4.5,10.4,42,0.00,OVC,FEW,0.00,WeatherDisplay:10.37,2013-07-19 20:19:00,
2013-07-19 15:25:00,99.1,72.0,29.77,SW,225,1.6,4.6,42,0.00,OVC,FEW,0.00,WeatherDisplay:10.37,2013-07-19 20:25:00,
2013-07-19 15:30:00,98.8,71.7,29.77,West,270,3.8,5.8,42,0.00,OVC,FEW,0.00,WeatherDisplay:10.37,2013-07-19 20:30:00,
2013-07-19 15:36:00,98.8,72.4,29.77,South,180,3.1,6.0,43,0.00,OVC,FEW,0.00,WeatherDisplay:10.37,2013-07-19 20:36:00,
2013-07-19 15:41:00,99.1,72.0,29.77,North,0,0.7,5.8,42,0.00,OVC,FEW,0.00,WeatherDisplay:10.37,2013-07-19 20:41:00,
2013-07-19 15:47:00,99.9,71.9,29.77,SW,225,1.6,5.8,41,0.00,OVC,FEW,0.00,WeatherDisplay:10.37,2013-07-19 20:47:00,
2013-07-19 15:53:00,99.7,71.8,29.76,SW,225,2.2,6.0,41,0.00,OVC,FEW,0.00,WeatherDisplay:10.37,2013-07-19 20:53:00,
2013-07-19 15:58:00,100.4,73.1,29.77,WSW,248,1.6,5.8,42,0.00,OVC,FEW,0.00,WeatherDisplay:10.37,2013-07-19 20:58:00,
2013-07-19 16:04:00,100.4,73.1,29.77,WSW,248,1.6,3.8,42,0.00,OVC,FEW,0.00,WeatherDisplay:10.37,2013-07-19 21:04:00,
2013-07-19 16:09:00,100.2,72.3,29.76,South,180,3.8,6.0,41,0.00,OVC,FEW,0.00,WeatherDisplay:10.37,2013-07-19 21:09:00,
2013-07-19 16:15:00,99.9,71.2,29.76,West,270,2.2,4.6,40,0.00,OVC,FEW,0.00,WeatherDisplay:10.37,2013-07-19 21:15:00,
2013-07-19 16:21:00,99.9,71.2,29.77,West,270,2.2,4.6,40,0.00,OVC,FEW,0.00,WeatherDisplay:10.37,2013-07-19 21:21:00,
2013-07-19 16:26:00,99.9,71.9,29.76,North,0,4.5,8.1,41,0.00,OVC,FEW,0.00,WeatherDisplay:10.37,2013-07-19 21:26:00,
2013-07-19 16:32:00,98.8,71.0,29.76,NE,45,1.6,3.5,41,0.00,OVC,FEW,0.00,WeatherDisplay:10.37,2013-07-19 21:32:00,
2013-07-19 16:37:00,98.2,71.9,29.76,SSE,158,2.2,8.1,43,0.00,OVC,FEW,0.00,WeatherDisplay:10.37,2013-07-19 21:37:00,
2013-07-19 16:43:00,97.0,70.1,29.76,SW,225,4.5,12.1,42,0.00,OVC,FEW,0.00,WeatherDisplay:10.37,2013-07-19 21:43:00,
2013-07-19 16:49:00,96.6,71.8,29.76,South,180,2.2,12.7,45,0.00,OVC,FEW,0.00,WeatherDisplay:10.37,2013-07-19 21:49:00,
2013-07-19 16:54:00,96.6,71.8,29.76,SW,225,0.7,5.8,45,0.00,OVC,FEW,0.00,WeatherDisplay:10.37,2013-07-19 21:54:00,
2013-07-19 17:00:00,96.4,72.3,29.75,North,0,2.2,4.5,46,0.00,OVC,FEW,0.00,WeatherDisplay:10.37,2013-07-19 22:00:00,
2013-07-19 17:05:00,96.1,72.0,29.75,SW,225,3.1,5.8,46,0.00,OVC,FEW,0.00,WeatherDisplay:10.37,2013-07-19 22:05:00,
2013-07-19 17:11:00,95.7,71.0,29.75,WNW,292,0.7,5.8,45,0.00,OVC,FEW,0.00,WeatherDisplay:10.37,2013-07-19 22:11:00,
2013-07-19 17:17:00,95.5,71.5,29.75,SW,225,1.6,4.6,46,0.00,OVC,FEW,0.00,WeatherDisplay:10.37,2013-07-19 22:17:00,
2013-07-19 17:22:00,95.4,71.3,29.75,West,270,1.6,3.8,46,0.00,OVC,FEW,0.00,WeatherDisplay:10.37,2013-07-19 22:22:00,
2013-07-19 17:28:00,95.2,71.1,29.75,North,0,1.6,4.6,46,0.00,OVC,FEW,0.00,WeatherDisplay:10.37,2013-07-19 22:28:00,
2013-07-19 17:33:00,95.2,71.1,29.75,SW,225,2.2,8.1,46,0.00,OVC,FEW,0.00,WeatherDisplay:10.37,2013-07-19 22:33:00,
2013-07-19 17:39:00,94.8,71.4,29.74,SW,225,3.1,9.2,47,0.00,OVC,FEW,0.00,WeatherDisplay:10.37,2013-07-19 22:39:00,
2013-07-19 17:45:00,94.6,71.3,29.75,SW,225,3.1,5.8,47,0.00,OVC,FEW,0.00,WeatherDisplay:10.37,2013-07-19 22:45:00,
2013-07-19 17:50:00,94.6,71.9,29.74,North,0,1.6,4.6,48,0.00,OVC,FEW,0.00,WeatherDisplay:10.37,2013-07-19 22:50:00,
2013-07-19 17:56:00,94.6,71.9,29.74,South,180,1.6,3.5,48,0.00,OVC,FEW,0.00,WeatherDisplay:10.37,2013-07-19 22:56:00,
2013-07-19 18:01:00,94.8,72.1,29.74,NW,315,1.6,3.5,48,0.00,OVC,FEW,0.00,WeatherDisplay:10.37,2013-07-19 23:01:00,
2013-07-19 18:07:00,94.6,71.9,29.74,West,270,1.6,6.9,48,0.00,OVC,FEW,0.00,WeatherDisplay:10.37,2013-07-19 23:07:00,
2013-07-19 18:13:00,94.1,71.4,29.73,SW,225,3.1,8.1,48,0.00,OVC,FEW,0.00,WeatherDisplay:10.37,2013-07-19 23:13:00,
2013-07-19 18:18:00,94.1,72.0,29.73,NW,315,1.6,5.8,49,0.00,OVC,FEW,0.00,WeatherDisplay:10.37,2013-07-19 23:18:00,
2013-07-19 18:24:00,94.1,72.0,29.74,SW,225,0.7,5.8,49,0.00,OVC,FEW,0.00,WeatherDisplay:10.37,2013-07-19 23:24:00,
2013-07-19 18:29:00,93.6,71.5,29.73,SW,225,3.1,5.4,49,0.00,OVC,FEW,0.00,WeatherDisplay:10.37,2013-07-19 23:29:00,
2013-07-19 18:35:00,92.8,71.5,29.73,South,180,2.2,5.4,50,0.00,OVC,FEW,0.00,WeatherDisplay:10.37,2013-07-19 23:35:00,
2013-07-19 18:41:00,92.3,71.6,29.73,South,180,0.0,3.5,51,0.00,OVC,FEW,0.00,WeatherDisplay:10.37,2013-07-19 23:41:00,
2013-07-19 18:46:00,91.9,71.8,29.73,SW,225,0.0,3.5,52,0.00,OVC,FEW,0.00,WeatherDisplay:10.37,2013-07-19 23:46:00,
2013-07-19 18:52:00,91.6,72.0,29.73,SW,225,1.6,4.6,53,0.00,OVC,FEW,0.00,WeatherDisplay:10.37,2013-07-19 23:52:00,
2013-07-19 18:57:00,91.4,71.9,29.74,SW,225,1.6,4.6,53,0.00,OVC,FEW,0.00,WeatherDisplay:10.37,2013-07-19 23:57:00,
2013-07-19 19:03:00,91.4,71.9,29.74,SW,225,1.6,3.5,53,0.00,OVC,FEW,0.00,WeatherDisplay:10.37,2013-07-20 00:03:00,
2013-07-19 19:09:00,91.0,72.1,29.74,SE,135,0.7,3.5,54,0.00,OVC,FEW,0.00,WeatherDisplay:10.37,2013-07-20 00:09:00,
2013-07-19 19:14:00,91.0,72.1,29.74,South,180,2.2,8.1,54,0.00,OVC,FEW,0.00,WeatherDisplay:10.37,2013-07-20 00:14:00,
2013-07-19 19:20:00,90.7,72.3,29.73,West,270,1.6,3.5,55,0.00,OVC,FEW,0.00,WeatherDisplay:10.37,2013-07-20 00:20:00,
2013-07-19 19:25:00,90.7,72.8,29.74,SW,225,0.0,1.2,56,0.00,OVC,FEW,0.00,WeatherDisplay:10.37,2013-07-20 00:25:00,
2013-07-19 19:31:00,90.5,72.7,29.75,SSW,202,0.7,3.5,56,0.00,OVC,FEW,0.00,WeatherDisplay:10.37,2013-07-20 00:31:00,
2013-07-19 19:37:00,89.1,71.8,29.75,West,270,2.2,9.2,57,0.00,OVC,FEW,0.00,WeatherDisplay:10.37,2013-07-20 00:37:00,
2013-07-19 19:42:00,86.2,70.7,29.75,NW,315,5.4,15.0,60,0.00,OVC,FEW,0.00,WeatherDisplay:10.37,2013-07-20 00:42:00,
2013-07-19 19:48:00,84.2,71.2,29.75,NW,315,3.8,11.4,65,0.00,OVC,FEW,0.00,WeatherDisplay:10.37,2013-07-20 00:48:00,
2013-07-19 19:56:00,82.4,69.9,29.75,NW,315,1.6,10.4,66,0.00,OVC,FEW,0.00,WeatherDisplay:10.37,2013-07-20 00:56:00,
2013-07-19 20:01:00,81.5,68.6,29.74,NW,315,0.7,5.8,65,0.00,OVC,FEW,0.00,WeatherDisplay:10.37,2013-07-20 01:01:00,
2013-07-19 20:07:00,81.7,69.2,29.74,NW,315,1.6,3.5,66,0.00,OVC,FEW,0.00,WeatherDisplay:10.37,2013-07-20 01:07:00,
2013-07-19 20:13:00,81.9,68.5,29.75,NW,315,0.7,2.3,64,0.00,OVC,FEW,0.00,WeatherDisplay:10.37,2013-07-20 01:13:00,
2013-07-19 20:18:00,82.0,69.1,29.75,NW,315,0.0,3.5,65,0.00,OVC,FEW,0.00,WeatherDisplay:10.37,2013-07-20 01:18:00,
2013-07-19 20:24:00,82.0,69.1,29.75,NE,45,0.0,0.0,65,0.00,OVC,FEW,0.00,WeatherDisplay:10.37,2013-07-20 01:24:00,
2013-07-19 20:29:00,81.5,69.5,29.75,SE,135,0.0,0.0,67,0.00,OVC,FEW,0.00,WeatherDisplay:10.37,2013-07-20 01:29:00,
2013-07-19 20:35:00,81.3,69.3,29.75,West,270,0.0,0.0,67,0.00,OVC,FEW,0.00,WeatherDisplay:10.37,2013-07-20 01:35:00,
2013-07-19 20:41:00,81.1,68.7,29.75,East,90,0.0,0.0,66,0.00,OVC,FEW,0.00,WeatherDisplay:10.37,2013-07-20 01:41:00,
2013-07-19 20:46:00,81.1,68.7,29.77,NW,315,1.6,2.3,66,0.00,OVC,FEW,0.00,WeatherDisplay:10.37,2013-07-20 01:46:00,
2013-07-19 20:52:00,81.3,68.0,29.77,West,270,0.0,1.6,64,0.00,OVC,FEW,0.00,WeatherDisplay:10.37,2013-07-20 01:52:00,
2013-07-19 20:57:00,81.5,68.1,29.77,SW,225,1.6,3.5,64,0.00,OVC,FEW,0.00,WeatherDisplay:10.37,2013-07-20 01:57:00,
2013-07-19 21:03:00,81.7,69.2,29.78,SSW,202,0.7,2.3,66,0.00,OVC,FEW,0.00,WeatherDisplay:10.37,2013-07-20 02:03:00,
2013-07-19 21:09:00,81.5,69.5,29.77,SW,225,0.0,3.5,67,0.00,OVC,FEW,0.00,WeatherDisplay:10.37,2013-07-20 02:09:00,
2013-07-19 21:14:00,81.5,70.3,29.77,SW,225,0.7,3.5,69,0.00,OVC,FEW,0.00,WeatherDisplay:10.37,2013-07-20 02:14:00,
2013-07-19 21:20:00,81.5,70.3,29.77,SSE,158,0.7,1.6,69,0.00,OVC,FEW,0.00,WeatherDisplay:10.37,2013-07-20 02:20:00,
2013-07-19 21:25:00,81.7,70.5,29.77,South,180,0.0,2.3,69,0.00,OVC,FEW,0.00,WeatherDisplay:10.37,2013-07-20 02:25:00,
2013-07-19 21:31:00,81.7,70.9,29.77,West,270,0.7,1.6,70,0.00,OVC,FEW,0.00,WeatherDisplay:10.37,2013-07-20 02:31:00,
2013-07-19 21:37:00,81.5,70.8,29.77,SW,225,0.0,0.0,70,0.00,OVC,FEW,0.00,WeatherDisplay:10.37,2013-07-20 02:37:00,
2013-07-19 21:42:00,81.1,70.4,29.77,SE,135,0.0,0.0,70,0.00,OVC,FEW,0.00,WeatherDisplay:10.37,2013-07-20 02:42:00,
2013-07-19 21:48:00,81.1,70.4,29.78,North,0,0.0,2.2,70,0.00,OVC,FEW,0.00,WeatherDisplay:10.37,2013-07-20 02:48:00,
2013-07-19 21:53:00,81.3,70.6,29.78,NW,315,0.7,3.5,70,0.00,OVC,FEW,0.00,WeatherDisplay:10.37,2013-07-20 02:53:00,
2013-07-19 21:59:00,81.3,71.4,29.78,North,0,0.7,4.6,72,0.00,OVC,FEW,0.00,WeatherDisplay:10.37,2013-07-20 02:59:00,
2013-07-19 22:05:00,81.0,71.1,29.78,NW,315,0.0,1.6,72,0.00,OVC,FEW,0.00,WeatherDisplay:10.37,2013-07-20 03:05:00,
2013-07-19 22:10:00,80.8,71.3,29.78,NW,315,0.7,2.3,73,0.00,OVC,FEW,0.00,WeatherDisplay:10.37,2013-07-20 03:10:00,
2013-07-19 22:16:00,80.6,71.1,29.78,NW,315,1.6,3.5,73,0.00,OVC,FEW,0.00,WeatherDisplay:10.37,2013-07-20 03:16:00,
2013-07-19 22:21:00,80.4,71.4,29.79,NW,315,0.7,4.6,74,0.00,OVC,FEW,0.00,WeatherDisplay:10.37,2013-07-20 03:21:00,
2013-07-19 22:27:00,80.2,71.2,29.79,NW,315,0.7,3.5,74,0.00,OVC,FEW,0.00,WeatherDisplay:10.37,2013-07-20 03:27:00,
2013-07-19 22:33:00,80.1,71.0,29.79,North,0,0.0,3.5,74,0.00,OVC,FEW,0.00,WeatherDisplay:10.37,2013-07-20 03:33:00,
2013-07-19 22:38:00,80.1,71.4,29.79,NW,315,1.6,4.6,75,0.00,OVC,FEW,0.00,WeatherDisplay:10.37,2013-07-20 03:38:00,
2013-07-19 22:44:00,79.9,71.2,29.79,NW,315,0.7,3.5,75,0.00,OVC,FEW,0.00,WeatherDisplay:10.37,2013-07-20 03:44:00,
2013-07-19 22:49:00,79.9,71.2,29.79,NW,315,1.6,4.6,75,0.00,OVC,FEW,0.00,WeatherDisplay:10.37,2013-07-20 03:49:00,
2013-07-19 22:55:00,79.7,71.5,29.79,NNW,338,1.6,3.5,76,0.00,OVC,FEW,0.00,WeatherDisplay:10.37,2013-07-20 03:55:00,
2013-07-19 23:01:00,79.5,71.3,29.79,NW,315,0.7,2.3,76,0.00,OVC,FEW,0.00,WeatherDisplay:10.37,2013-07-20 04:01:00,
2013-07-19 23:02:00,79.7,71.5,29.79,NW,315,0.0,1.6,76,0.00,OVC,FEW,0.00,WeatherDisplay:10.37,2013-07-20 04:02:00,
2013-07-19 23:03:00,79.7,71.5,29.79,NW,315,0.0,1.2,76,0.00,OVC,FEW,0.00,WeatherDisplay:10.37,2013-07-20 04:03:00,
2013-07-19 23:05:00,79.5,71.3,29.79,NW,315,0.7,1.2,76,0.00,OVC,FEW,0.00,WeatherDisplay:10.37,2013-07-20 04:05:00,
2013-07-19 23:11:00,79.5,71.3,29.79,North,0,0.0,2.3,76,0.00,OVC,FEW,0.00,WeatherDisplay:10.37,2013-07-20 04:11:00,
2013-07-19 23:17:00,79.7,70.7,29.79,NW,315,1.6,3.8,74,0.00,OVC,FEW,0.00,WeatherDisplay:10.37,2013-07-20 04:17:00,
2013-07-19 23:22:00,79.9,70.0,29.79,NW,315,1.6,3.5,72,0.00,OVC,FEW,0.00,WeatherDisplay:10.37,2013-07-20 04:22:00,
2013-07-19 23:28:00,80.1,69.8,29.80,NW,315,0.7,3.5,71,0.00,OVC,FEW,0.00,WeatherDisplay:10.37,2013-07-20 04:28:00,
2013-07-19 23:33:00,80.1,69.8,29.79,NW,315,0.7,2.3,71,0.00,OVC,FEW,0.00,WeatherDisplay:10.37,2013-07-20 04:33:00,
2013-07-19 23:39:00,80.1,69.8,29.80,North,0,0.7,5.8,71,0.00,OVC,FEW,0.00,WeatherDisplay:10.37,2013-07-20 04:39:00,
2013-07-19 23:45:00,79.9,70.0,29.80,NW,315,2.2,6.9,72,0.00,OVC,FEW,0.00,WeatherDisplay:10.37,2013-07-20 04:45:00,
2013-07-19 23:50:00,79.7,69.9,29.80,NW,315,1.6,3.5,72,0.00,OVC,FEW,0.00,WeatherDisplay:10.37,2013-07-20 04:50:00,
2013-07-19 23:56:00,79.5,70.1,29.80,NW,315,2.2,4.6,73,0.00,OVC,FEW,0.00,WeatherDisplay:10.37,2013-07-20 04:56:00,